Time;durP1;ratioP1;P1;durP2;ratioP2;P2;SDS_P1;SDS_P2;PMS_P1;PMS_P2;Temp;Humidity;BMP_temperature;BMP_pressure;BME280_temperature;BME280_humidity;BME280_pressure;Samples;Min_cycle;Max_cycle;Signal;HPM_P1;HPM_P2
2022/03/16 00:00:21;;;;;;;20.42;15.10;;;8.70;99.90;;;;;;4961145;28;20087;-92
2022/03/16 04:49:10;;;;;;;26.07;17.63;;;8.40;99.90;;;;;;5801013;23;20055;-88
2022/03/16 04:51:37;;;;;;;26.92;18.08;;;8.40;99.90;;;;;;4952249;28;20804;-87
2022/03/16 04:54:05;;;;;;;29.52;18.40;;;8.30;99.90;;;;;;4963586;29;20384;-88
2022/03/16 04:56:34;;;;;;;25.77;17.50;;;8.40;99.90;;;;;;4955309;28;20062;-82
2022/03/16 04:59:01;;;;;;;24.33;16.13;;;8.40;99.90;;;;;;4969199;29;20503;-90
2022/03/16 05:01:28;;;;;;;28.10;17.27;;;8.40;99.90;;;;;;4948912;29;20059;-89
2022/03/16 05:03:55;;;;;;;24.50;16.73;;;8.30;99.90;;;;;;4941352;29;20052;-89
2022/03/16 05:06:24;;;;;;;25.88;17.33;;;8.30;99.90;;;;;;4940000;28;20086;-88
2022/03/16 05:08:51;;;;;;;24.65;16.38;;;8.40;99.90;;;;;;4941252;29;20083;-91
2022/03/16 05:11:20;;;;;;;26.55;17.65;;;8.40;99.90;;;;;;4950416;29;20137;-88
2022/03/16 05:13:48;;;;;;;27.48;17.98;;;8.30;99.90;;;;;;4957807;29;20054;-85
2022/03/16 05:16:15;;;;;;;25.10;16.90;;;8.30;99.90;;;;;;4948668;28;20134;-86
2022/03/16 05:18:44;;;;;;;28.55;19.38;;;8.30;99.90;;;;;;4945016;29;20085;-84
2022/03/16 05:21:12;;;;;;;26.58;17.67;;;8.30;99.90;;;;;;4944934;28;20497;-89
2022/03/16 05:23:41;;;;;;;24.40;16.83;;;8.30;99.90;;;;;;4940365;29;20075;-87
2022/03/16 05:26:09;;;;;;;26.25;17.88;;;8.30;99.90;;;;;;4953365;29;20055;-89
2022/03/16 05:28:36;;;;;;;25.50;17.63;;;8.30;99.90;;;;;;4959121;28;20051;-91
2022/03/16 05:31:04;;;;;;;26.10;18.08;;;8.40;99.90;;;;;;4958838;28;20114;-90
2022/03/16 05:33:31;;;;;;;25.67;16.80;;;8.40;99.90;;;;;;4959163;28;20090;-88
2022/03/16 05:35:58;;;;;;;27.45;17.80;;;8.40;99.90;;;;;;4958765;28;20075;-91
2022/03/16 05:38:25;;;;;;;27.05;18.42;;;8.40;99.90;;;;;;4958156;28;20544;-90
2022/03/16 05:40:54;;;;;;;28.88;18.80;;;8.40;99.90;;;;;;4958502;28;20086;-90
2022/03/16 05:43:22;;;;;;;27.95;18.05;;;8.50;99.90;;;;;;4958513;28;20419;-89
2022/03/16 05:45:50;;;;;;;27.02;18.05;;;8.50;99.90;;;;;;4958540;28;20504;-89
2022/03/16 05:48:17;;;;;;;27.13;17.73;;;8.50;99.90;;;;;;4977401;28;20058;-89
2022/03/16 05:50:46;;;;;;;26.80;18.02;;;8.50;99.90;;;;;;4967965;28;20090;-89
2022/03/16 05:53:14;;;;;;;27.20;17.90;;;8.50;99.90;;;;;;4958867;28;20083;-90
2022/03/16 05:55:42;;;;;;;26.42;17.42;;;8.50;99.90;;;;;;4958943;28;20481;-90
2022/03/16 05:58:10;;;;;;;23.70;16.27;;;8.50;99.90;;;;;;4957556;29;20137;-90
2022/03/16 06:00:41;;;;;;;25.95;17.13;;;8.50;99.90;;;;;;4957113;28;20661;-90
2022/03/16 06:03:08;;;;;;;27.10;18.10;;;8.50;99.90;;;;;;4958623;28;20456;-89
2022/03/16 06:05:35;;;;;;;27.08;17.90;;;8.40;99.90;;;;;;4958517;28;20143;-90
2022/03/16 06:08:03;;;;;;;27.08;17.40;;;8.50;99.90;;;;;;4958534;28;20055;-90
2022/03/16 06:10:30;;;;;;;26.13;16.88;;;8.50;99.90;;;;;;4959219;28;20070;-89
2022/03/16 06:13:02;;;;;;;26.60;18.05;;;8.50;99.90;;;;;;4966070;28;20394;-90
2022/03/16 06:15:40;;;;;;;27.35;17.45;;;8.50;99.90;;;;;;4967965;28;20098;-90
2022/03/16 06:18:07;;;;;;;24.90;16.80;;;8.50;99.90;;;;;;4968253;28;20086;-89
2022/03/16 06:20:36;;;;;;;26.67;17.45;;;8.60;99.90;;;;;;4965855;28;20051;-89
2022/03/16 06:23:05;;;;;;;29.27;18.70;;;8.60;99.90;;;;;;4967048;29;20087;-89
2022/03/16 06:25:33;;;;;;;29.67;18.45;;;8.60;99.90;;;;;;4963086;28;20059;-90
2022/03/16 06:28:00;;;;;;;32.28;20.40;;;8.60;99.90;;;;;;4958190;28;20071;-90
2022/03/16 06:30:28;;;;;;;32.17;20.63;;;8.50;99.90;;;;;;4957243;28;20051;-89
2022/03/16 06:32:56;;;;;;;34.28;20.40;;;8.60;99.90;;;;;;4938917;29;20144;-88
2022/03/16 06:35:25;;;;;;;33.45;20.65;;;8.50;99.90;;;;;;4944056;29;20074;-88
2022/03/16 06:37:52;;;;;;;36.53;21.88;;;8.50;99.90;;;;;;4942161;29;20134;-88
2022/03/16 06:40:19;;;;;;;42.90;24.80;;;8.50;99.90;;;;;;4939259;29;20158;-90
2022/03/16 06:42:49;;;;;;;37.42;22.10;;;8.40;99.90;;;;;;4939506;29;20102;-91
2022/03/16 06:45:17;;;;;;;41.50;23.58;;;8.40;99.90;;;;;;4938248;29;20094;-89
2022/03/16 06:47:45;;;;;;;42.15;22.70;;;8.40;99.90;;;;;;4938114;29;20456;-89
2022/03/16 06:50:14;;;;;;;43.00;24.17;;;8.50;99.90;;;;;;4938050;29;20083;-90
2022/03/16 06:52:41;;;;;;;44.72;23.52;;;8.40;99.90;;;;;;4938544;29;20048;-90
2022/03/16 06:55:10;;;;;;;46.03;26.27;;;8.40;99.90;;;;;;4938404;29;20086;-89
2022/03/16 06:57:37;;;;;;;47.10;24.80;;;8.30;99.90;;;;;;4937456;29;20135;-90
2022/03/16 07:00:07;;;;;;;45.80;26.20;;;8.40;99.90;;;;;;4938448;29;20083;-89
2022/03/16 07:02:50;;;;;;;44.00;23.55;;;8.30;99.90;;;;;;4941090;29;20043;-88
2022/03/16 07:05:19;;;;;;;45.88;24.90;;;8.30;99.90;;;;;;4937665;29;20091;-88
2022/03/16 07:07:46;;;;;;;43.63;23.80;;;8.30;99.90;;;;;;4936781;29;20115;-91
2022/03/16 07:10:14;;;;;;;43.83;24.10;;;8.30;99.90;;;;;;4937439;29;20051;-90
2022/03/16 07:12:41;;;;;;;43.78;24.88;;;8.40;99.90;;;;;;4937458;29;20047;-90
2022/03/16 07:15:10;;;;;;;45.65;24.10;;;8.40;99.90;;;;;;4937362;29;20135;-90
2022/03/16 07:17:37;;;;;;;39.17;22.80;;;8.30;99.90;;;;;;4937207;29;20051;-89
2022/03/16 07:20:07;;;;;;;37.78;21.83;;;8.40;99.90;;;;;;4937667;29;20564;-88
2022/03/16 07:22:37;;;;;;;42.70;24.00;;;8.50;99.90;;;;;;4952630;29;20489;-89
2022/03/16 07:25:09;;;;;;;38.33;20.92;;;8.40;99.90;;;;;;4938386;29;20135;-91
2022/03/16 07:27:38;;;;;;;36.92;20.95;;;8.40;99.90;;;;;;4944393;29;20047;-89
2022/03/16 07:30:07;;;;;;;35.08;20.50;;;8.50;99.90;;;;;;4957333;28;20059;-89
2022/03/16 07:32:37;;;;;;;42.42;21.88;;;8.50;99.90;;;;;;4956849;28;20070;-90
2022/03/16 07:35:04;;;;;;;38.88;21.13;;;8.50;99.90;;;;;;4956447;28;20059;-89
2022/03/16 07:37:32;;;;;;;34.60;20.77;;;8.50;99.90;;;;;;4956080;29;20093;-89
2022/03/16 07:40:00;;;;;;;34.33;20.10;;;8.50;99.90;;;;;;4958152;28;20075;-91
2022/03/16 07:42:27;;;;;;;39.95;23.15;;;8.50;99.90;;;;;;4959311;28;20086;-89
2022/03/16 07:44:55;;;;;;;34.00;21.02;;;8.40;99.90;;;;;;4955550;28;20053;-90
2022/03/16 07:47:24;;;;;;;33.67;20.83;;;8.40;99.90;;;;;;4954966;28;20138;-89
2022/03/16 07:49:51;;;;;;;34.22;20.38;;;8.40;99.90;;;;;;4957070;28;20059;-90
2022/03/16 07:52:20;;;;;;;32.92;20.00;;;8.40;99.90;;;;;;4956743;28;20134;-90
2022/03/16 07:54:47;;;;;;;31.40;18.60;;;8.50;99.90;;;;;;4956425;28;20047;-90
2022/03/16 07:57:16;;;;;;;33.47;20.48;;;8.50;99.90;;;;;;4958163;28;20438;-89
2022/03/16 07:59:44;;;;;;;35.60;21.65;;;8.50;99.90;;;;;;4955310;28;20059;-91
2022/03/16 08:02:16;;;;;;;35.13;21.50;;;8.40;99.90;;;;;;4942339;28;20545;-89
2022/03/16 08:04:43;;;;;;;34.75;20.98;;;8.30;99.90;;;;;;4936913;29;20063;-88
2022/03/16 08:07:11;;;;;;;33.92;20.63;;;8.40;99.90;;;;;;4935606;29;20090;-88
2022/03/16 08:09:38;;;;;;;33.13;19.77;;;8.40;99.90;;;;;;4939025;29;20091;-91
2022/03/16 08:12:07;;;;;;;35.80;20.88;;;8.40;99.90;;;;;;4948747;29;20425;-91
2022/03/16 08:14:36;;;;;;;39.72;23.95;;;8.40;99.90;;;;;;4959501;29;20086;-88
2022/03/16 08:17:03;;;;;;;38.13;23.40;;;8.30;99.90;;;;;;4959217;28;20062;-91
2022/03/16 08:19:31;;;;;;;33.45;21.40;;;8.30;99.90;;;;;;4965103;28;20126;-89
2022/03/16 08:21:59;;;;;;;36.13;22.67;;;8.40;99.90;;;;;;4965562;28;20545;-89
2022/03/16 08:24:26;;;;;;;33.55;21.05;;;8.40;99.90;;;;;;4963922;28;20047;-87
2022/03/16 08:26:53;;;;;;;34.58;21.55;;;8.50;99.90;;;;;;4958800;29;20232;-90
2022/03/16 08:29:20;;;;;;;36.08;22.00;;;8.50;99.90;;;;;;4959596;28;20475;-88
2022/03/16 08:31:49;;;;;;;32.50;21.35;;;8.50;99.90;;;;;;4959399;28;20078;-89
2022/03/16 08:34:18;;;;;;;34.22;21.17;;;8.60;99.90;;;;;;4959040;28;20474;-90
2022/03/16 08:36:45;;;;;;;32.67;20.98;;;8.60;99.90;;;;;;4943273;28;20079;-88
2022/03/16 08:39:12;;;;;;;32.22;20.05;;;8.60;99.90;;;;;;4940236;29;20135;-90
2022/03/16 08:41:40;;;;;;;29.83;18.95;;;8.80;99.90;;;;;;4943381;29;20117;-88
2022/03/16 08:44:08;;;;;;;29.20;18.70;;;8.80;99.90;;;;;;4941090;29;20485;-90
2022/03/16 08:46:35;;;;;;;28.67;18.42;;;8.80;99.90;;;;;;4940096;29;20083;-90
2022/03/16 08:49:04;;;;;;;30.25;18.83;;;8.80;99.90;;;;;;4938629;29;20051;-89
2022/03/16 08:51:31;;;;;;;29.23;18.60;;;8.80;99.90;;;;;;4939730;29;20052;-88
2022/03/16 08:53:58;;;;;;;27.08;17.40;;;9.00;99.90;;;;;;4938459;29;20134;-89
2022/03/16 08:56:25;;;;;;;28.00;17.52;;;9.00;99.90;;;;;;4939254;29;20537;-90
2022/03/16 08:58:52;;;;;;;28.30;18.77;;;9.10;99.90;;;;;;4940023;29;20481;-91
2022/03/16 09:01:20;;;;;;;25.63;17.33;;;9.20;99.90;;;;;;4941616;29;20048;-89
2022/03/16 09:03:47;;;;;;;29.98;19.88;;;9.30;99.90;;;;;;4939398;29;20071;-88
2022/03/16 09:06:15;;;;;;;27.17;18.33;;;9.30;99.90;;;;;;4955256;29;20075;-90
2022/03/16 09:08:43;;;;;;;29.38;18.27;;;9.40;99.90;;;;;;4957919;28;20082;-89
2022/03/16 09:11:10;;;;;;;27.45;17.33;;;9.40;99.90;;;;;;4946426;28;20087;-87
2022/03/16 09:13:37;;;;;;;26.23;18.02;;;9.50;99.90;;;;;;4945675;28;20052;-88
2022/03/16 09:16:05;;;;;;;27.95;18.15;;;9.50;99.90;;;;;;4936940;29;20048;-91
2022/03/16 09:18:33;;;;;;;29.20;17.75;;;9.50;99.90;;;;;;4936432;29;20134;-89
2022/03/16 09:21:00;;;;;;;27.35;18.27;;;9.60;99.90;;;;;;4946771;29;20047;-89
2022/03/16 09:23:31;;;;;;;25.67;17.08;;;9.60;99.90;;;;;;4936695;29;20450;-89
2022/03/16 09:25:59;;;;;;;26.58;16.60;;;9.70;99.90;;;;;;4954233;29;20059;-89
2022/03/16 09:28:26;;;;;;;30.05;18.95;;;9.80;99.90;;;;;;4958730;28;20087;-89
2022/03/16 09:30:54;;;;;;;29.67;18.35;;;9.80;99.90;;;;;;4977372;28;20078;-89
2022/03/16 09:33:22;;;;;;;27.42;18.27;;;9.80;99.90;;;;;;4969387;28;20243;-88
2022/03/16 09:35:49;;;;;;;27.70;17.13;;;9.90;99.90;;;;;;4956584;28;20085;-90
2022/03/16 09:38:17;;;;;;;24.10;15.18;;;10.00;99.90;;;;;;4939628;28;20441;-90
2022/03/16 09:40:47;;;;;;;21.25;13.93;;;10.10;99.90;;;;;;4936300;29;20066;-90
2022/03/16 09:43:19;;;;;;;21.30;14.75;;;10.20;99.90;;;;;;4936305;29;20476;-89
2022/03/16 09:45:54;;;;;;;23.80;15.65;;;10.30;99.90;;;;;;4936392;29;20470;-89
2022/03/16 09:48:23;;;;;;;23.48;15.25;;;10.40;99.90;;;;;;4936416;29;20574;-89
2022/03/16 09:50:51;;;;;;;19.10;13.52;;;10.50;99.90;;;;;;4936783;29;20055;-90
2022/03/16 09:53:19;;;;;;;19.65;13.25;;;10.60;99.90;;;;;;4935041;29;20086;-90
2022/03/16 09:55:48;;;;;;;19.40;13.13;;;10.60;99.90;;;;;;4947394;29;20075;-85
2022/03/16 09:58:15;;;;;;;21.63;14.70;;;10.70;99.90;;;;;;4934504;29;20512;-88
2022/03/16 10:00:42;;;;;;;22.08;14.13;;;10.60;99.90;;;;;;4950848;29;20142;-88
2022/03/16 10:03:09;;;;;;;19.85;13.68;;;10.60;99.90;;;;;;4953213;28;20481;-82
2022/03/16 10:05:38;;;;;;;20.55;13.02;;;10.70;99.90;;;;;;4953616;28;20162;-81
2022/03/16 10:08:08;;;;;;;18.40;13.25;;;10.80;99.90;;;;;;4954083;28;20576;-81
2022/03/16 10:13:24;;;;;;;19.50;12.13;;;10.80;99.90;;;;;;4954152;29;20074;-84
2022/03/16 10:15:55;;;;;;;19.63;12.23;;;10.90;99.90;;;;;;4952484;28;20048;-83
2022/03/16 10:18:23;;;;;;;18.60;12.25;;;11.00;99.90;;;;;;4934414;29;20044;-82
2022/03/16 10:20:52;;;;;;;18.67;13.43;;;11.10;99.90;;;;;;4934980;29;20055;-83
2022/03/16 10:23:24;;;;;;;17.63;12.20;;;11.10;99.90;;;;;;4934139;29;20573;-81
2022/03/16 10:25:54;;;;;;;17.88;12.82;;;11.20;99.90;;;;;;4934836;29;20536;-79
2022/03/16 10:28:25;;;;;;;19.25;13.25;;;11.40;99.90;;;;;;4932713;29;20070;-78
2022/03/16 10:30:56;;;;;;;14.90;11.68;;;11.40;99.90;;;;;;4933517;29;20048;-79
2022/03/16 10:33:32;;;;;;;14.73;10.75;;;11.70;99.90;;;;;;4942923;29;20061;-79
2022/03/16 10:36:05;;;;;;;15.15;10.13;;;12.30;99.90;;;;;;4953269;28;20059;-79
2022/03/16 10:38:39;;;;;;;18.58;11.57;;;12.30;99.90;;;;;;4953162;28;20149;-80
2022/03/16 10:46:34;;;;;;;18.15;12.23;;;12.30;99.90;;;;;;4953160;28;20142;-81
2022/03/16 10:46:52;;;;;;;14.95;10.50;;;12.10;99.90;;;;;;4951471;29;20081;-81
2022/03/16 10:49:22;;;;;;;15.60;11.10;;;12.30;99.90;;;;;;4953667;28;20568;-82
2022/03/16 10:52:02;;;;;;;17.58;12.70;;;12.20;99.90;;;;;;4953098;28;20057;-81
2022/03/16 10:54:31;;;;;;;15.18;11.23;;;12.10;99.90;;;;;;4953037;28;20054;-81
2022/03/16 10:57:01;;;;;;;12.85;9.88;;;12.10;99.90;;;;;;4952470;28;20066;-79
2022/03/16 10:59:34;;;;;;;14.48;10.80;;;12.20;99.90;;;;;;4952673;29;20055;-79
2022/03/16 11:02:04;;;;;;;14.93;10.73;;;12.30;99.90;;;;;;4952595;28;20509;-76
2022/03/16 11:04:32;;;;;;;14.88;10.27;;;12.30;99.90;;;;;;4953637;28;20468;-77
2022/03/16 11:07:01;;;;;;;13.43;9.77;;;12.40;99.90;;;;;;4953128;28;20154;-78
2022/03/16 11:09:29;;;;;;;13.95;10.63;;;12.50;99.90;;;;;;4950561;28;20485;-79
2022/03/16 11:14:47;;;;;;;13.40;9.88;;;12.40;99.90;;;;;;4952648;29;20066;-79
2022/03/16 11:17:15;;;;;;;14.70;10.15;;;12.60;99.90;;;;;;4952961;28;20051;-78
2022/03/16 11:19:44;;;;;;;14.05;10.38;;;12.70;99.70;;;;;;4952660;28;20142;-78
2022/03/16 11:22:18;;;;;;;16.58;11.38;;;12.70;99.40;;;;;;4952413;28;20059;-79
2022/03/16 11:24:49;;;;;;;13.20;9.82;;;12.60;99.40;;;;;;4950894;29;20130;-79
2022/03/16 11:27:46;;;;;;;15.23;11.07;;;12.50;99.90;;;;;;4944566;29;20130;-78
2022/03/16 11:30:26;;;;;;;15.20;9.75;;;12.50;99.50;;;;;;4921882;29;20224;-78
2022/03/16 11:33:00;;;;;;;15.77;10.70;;;12.50;99.80;;;;;;4935723;29;20087;-78
2022/03/16 11:35:32;;;;;;;14.07;10.35;;;12.50;99.60;;;;;;4936514;29;20079;-77
2022/03/16 11:38:03;;;;;;;13.20;9.20;;;12.50;99.60;;;;;;4937412;29;20052;-79
2022/03/16 11:40:31;;;;;;;12.25;8.25;;;12.60;99.70;;;;;;4937214;29;20134;-80
2022/03/16 11:43:28;;;;;;;12.43;8.20;;;12.70;99.40;;;;;;4934920;29;20580;-79
2022/03/16 11:45:59;;;;;;;13.35;9.35;;;12.90;99.50;;;;;;4915756;29;20565;-78
2022/03/16 11:48:56;;;;;;;12.02;8.10;;;13.00;99.40;;;;;;4927810;29;20568;-78
2022/03/16 11:51:25;;;;;;;12.85;8.90;;;13.00;99.00;;;;;;4947924;29;20052;-79
2022/03/16 11:54:07;;;;;;;12.88;8.70;;;13.20;99.00;;;;;;4937181;29;20062;-78
2022/03/16 11:56:53;;;;;;;14.77;9.98;;;13.20;98.80;;;;;;4936794;29;20047;-79
2022/03/16 11:59:33;;;;;;;14.63;9.73;;;13.00;98.50;;;;;;4936742;29;20056;-77
2022/03/16 12:02:18;;;;;;;13.30;9.88;;;13.10;98.70;;;;;;4937956;29;20074;-79
2022/03/16 12:04:47;;;;;;;12.90;9.60;;;13.20;98.80;;;;;;4936628;29;20144;-79
2022/03/16 12:07:18;;;;;;;13.32;9.27;;;13.40;97.90;;;;;;4937038;29;20055;-79
2022/03/16 12:09:47;;;;;;;12.70;9.07;;;13.40;97.90;;;;;;4937583;29;20403;-78
2022/03/16 12:15:34;;;;;;;11.82;9.07;;;13.40;98.30;;;;;;4936516;29;20188;-79
2022/03/16 12:18:28;;;;;;;11.70;8.70;;;13.50;97.90;;;;;;4936632;29;20048;-78
2022/03/16 12:21:10;;;;;;;11.75;8.88;;;13.30;97.70;;;;;;4927072;29;20091;-79
2022/03/16 12:24:00;;;;;;;11.20;8.18;;;13.20;98.40;;;;;;4936690;29;20468;-78
2022/03/16 12:26:30;;;;;;;12.05;7.95;;;13.40;98.10;;;;;;4937423;29;20087;-78
2022/03/16 12:29:06;;;;;;;11.43;8.00;;;13.40;97.70;;;;;;4934253;29;20142;-77
2022/03/16 12:31:35;;;;;;;11.25;7.80;;;13.50;97.90;;;;;;4936604;29;20055;-78
2022/03/16 12:34:03;;;;;;;11.90;8.48;;;13.40;97.80;;;;;;4935721;29;20477;-78
2022/03/16 12:36:32;;;;;;;12.10;8.98;;;13.30;98.00;;;;;;4935944;29;20163;-78
2022/03/16 12:39:03;;;;;;;11.27;8.35;;;13.20;98.30;;;;;;4937013;29;20576;-78
2022/03/16 12:44:19;;;;;;;15.00;8.20;;;13.40;98.20;;;;;;4935814;29;20070;-79
2022/03/16 12:46:54;;;;;;;11.68;9.07;;;13.50;98.10;;;;;;4936184;29;20151;-78
2022/03/16 12:49:24;;;;;;;11.85;8.63;;;13.40;98.20;;;;;;4936064;29;20063;-77
2022/03/16 12:51:54;;;;;;;11.27;7.35;;;13.40;98.40;;;;;;4935725;29;20556;-78
2022/03/16 12:54:28;;;;;;;11.93;7.93;;;13.50;98.10;;;;;;4935128;29;20135;-78
2022/03/16 12:57:01;;;;;;;;;;;13.50;98.20;;;;;;4936901;29;20590;-78
2022/03/16 12:59:31;;;;;;;13.85;8.77;;;13.40;98.10;;;;;;4935669;29;19934;-78
2022/03/16 13:01:59;;;;;;;14.25;9.90;;;13.40;98.40;;;;;;4936081;29;20162;-76
2022/03/16 13:04:28;;;;;;;11.80;8.65;;;13.30;98.20;;;;;;4936847;29;20060;-77
2022/03/16 13:06:57;;;;;;;13.25;9.77;;;13.20;98.50;;;;;;4935923;29;20150;-79
2022/03/16 13:09:28;;;;;;;12.95;9.38;;;13.20;98.60;;;;;;4935517;29;20552;-79
2022/03/16 13:12:08;;;;;;;16.63;10.50;;;13.30;98.60;;;;;;4935774;29;20074;-78
2022/03/16 13:14:37;;;;;;;15.10;10.10;;;13.10;98.50;;;;;;4936010;29;20146;-80
2022/03/16 13:17:07;;;;;;;16.92;10.68;;;13.00;98.60;;;;;;4935679;28;20572;-78
2022/03/16 13:19:38;;;;;;;15.35;9.80;;;13.10;98.60;;;;;;4935493;29;20055;-80
2022/03/16 13:22:07;;;;;;;15.10;10.00;;;13.10;98.70;;;;;;4935353;29;20142;-77
2022/03/16 13:24:36;;;;;;;18.40;10.45;;;13.20;98.50;;;;;;4935658;29;20170;-79
2022/03/16 13:27:06;;;;;;;14.80;9.05;;;13.10;98.60;;;;;;4936699;29;20192;-78
2022/03/16 13:29:37;;;;;;;12.48;8.05;;;13.20;98.60;;;;;;4952712;28;20090;-78
2022/03/16 13:32:06;;;;;;;12.55;8.18;;;13.40;98.40;;;;;;4954331;28;20074;-78
2022/03/16 13:34:37;;;;;;;11.90;8.52;;;13.40;98.20;;;;;;4956082;28;20057;-78
2022/03/16 13:37:22;;;;;;;12.75;8.57;;;13.60;97.90;;;;;;4956133;28;20155;-77
2022/03/16 13:39:58;;;;;;;11.65;8.13;;;13.50;97.80;;;;;;4951438;29;20051;-78
2022/03/16 13:42:30;;;;;;;10.35;7.45;;;13.70;98.10;;;;;;4954333;28;20141;-78
2022/03/16 13:45:17;;;;;;;11.50;7.82;;;13.90;97.50;;;;;;4954152;28;20134;-80
2022/03/16 13:47:46;;;;;;;12.05;7.78;;;14.00;96.80;;;;;;4954015;28;20556;-77
2022/03/16 13:50:25;;;;;;;10.98;7.47;;;14.00;96.90;;;;;;4953632;28;20501;-78
2022/03/16 13:52:56;;;;;;;10.15;7.13;;;14.00;96.70;;;;;;4952422;28;20050;-79
2022/03/16 13:55:24;;;;;;;11.73;7.78;;;14.30;96.10;;;;;;4953895;28;20058;-78
2022/03/16 13:57:51;;;;;;;12.68;8.10;;;14.50;95.80;;;;;;4953841;28;20055;-79
2022/03/16 14:00:20;;;;;;;11.50;7.97;;;14.60;95.50;;;;;;4953447;28;20504;-79
2022/03/16 14:02:47;;;;;;;12.77;7.68;;;14.60;95.90;;;;;;4954021;28;20110;-78
2022/03/16 14:05:19;;;;;;;10.27;7.90;;;14.40;95.70;;;;;;4952333;28;20051;-78
2022/03/16 14:07:50;;;;;;;12.25;8.15;;;14.30;95.50;;;;;;4954239;28;20130;-78
2022/03/16 14:10:23;;;;;;;13.90;8.90;;;14.40;96.20;;;;;;4953497;28;20066;-78
2022/03/16 14:12:51;;;;;;;13.88;8.88;;;14.50;95.50;;;;;;4953743;28;20058;-78
2022/03/16 14:15:20;;;;;;;12.57;8.85;;;14.20;95.80;;;;;;4953637;28;20510;-79
2022/03/16 14:17:54;;;;;;;11.55;8.23;;;14.30;95.40;;;;;;4951664;28;20477;-78
2022/03/16 14:20:28;;;;;;;10.88;7.80;;;14.40;95.70;;;;;;4953196;28;20081;-79
2022/03/16 14:22:57;;;;;;;;;;;14.50;95.90;;;;;;4953491;29;20083;-77
2022/03/16 14:25:27;;;;;;;13.32;9.43;;;14.30;95.80;;;;;;4953290;29;19984;-78
2022/03/16 14:27:56;;;;;;;14.95;9.93;;;14.10;96.10;;;;;;4951335;28;20098;-78
2022/03/16 14:30:25;;;;;;;11.98;8.57;;;14.10;96.10;;;;;;4951501;28;20053;-78
2022/03/16 14:32:57;;;;;;;16.75;10.48;;;14.20;95.80;;;;;;4953344;28;20058;-79
2022/03/16 14:35:24;;;;;;;15.38;10.50;;;14.00;95.90;;;;;;4951545;29;20094;-77
2022/03/16 14:37:51;;;;;;;18.27;10.45;;;13.80;96.20;;;;;;4953095;28;20058;-78
2022/03/16 14:40:23;;;;;;;14.93;10.50;;;13.70;96.80;;;;;;4952795;28;20054;-79
2022/03/16 14:42:52;;;;;;;16.98;10.40;;;13.70;96.80;;;;;;4951127;28;20109;-78
2022/03/16 14:45:19;;;;;;;13.70;9.45;;;13.80;96.60;;;;;;4952976;28;20055;-77
2022/03/16 14:47:46;;;;;;;14.50;10.07;;;14.10;96.90;;;;;;4952988;28;20151;-78
2022/03/16 14:50:14;;;;;;;17.17;10.90;;;14.10;96.40;;;;;;4952959;28;20146;-79
2022/03/16 14:52:41;;;;;;;18.05;10.75;;;13.90;96.20;;;;;;4953125;28;20067;-79
2022/03/16 14:55:09;;;;;;;15.32;10.40;;;13.90;96.60;;;;;;4936469;28;20617;-79
2022/03/16 14:57:38;;;;;;;17.35;11.90;;;14.00;96.60;;;;;;4933392;29;20130;-77
2022/03/16 15:00:08;;;;;;;15.98;11.18;;;13.80;96.20;;;;;;4933689;29;20509;-79
2022/03/16 15:02:35;;;;;;;18.35;12.95;;;13.70;96.60;;;;;;4933801;29;20446;-79
2022/03/16 15:05:03;;;;;;;16.90;12.05;;;13.50;96.70;;;;;;4933743;29;20121;-79
2022/03/16 15:07:30;;;;;;;16.02;10.88;;;13.40;97.00;;;;;;4934346;29;20232;-80
2022/03/16 15:09:58;;;;;;;16.38;11.05;;;13.40;97.10;;;;;;4933097;29;20139;-78
2022/03/16 15:12:26;;;;;;;17.42;12.32;;;13.40;97.30;;;;;;4933528;29;20051;-81
2022/03/16 15:14:57;;;;;;;14.55;10.73;;;13.40;97.10;;;;;;4933587;29;20388;-82
2022/03/16 15:17:25;;;;;;;18.90;12.30;;;13.30;97.00;;;;;;4933219;29;20047;-80
2022/03/16 15:19:53;;;;;;;15.27;10.90;;;13.30;97.20;;;;;;4938091;29;20428;-84
2022/03/16 15:22:21;;;;;;;14.73;9.63;;;13.30;97.00;;;;;;4937255;29;20060;-83
2022/03/16 15:24:49;;;;;;;15.48;11.18;;;13.30;96.90;;;;;;4933376;29;20135;-82
2022/03/16 15:27:16;;;;;;;17.05;12.45;;;13.30;97.50;;;;;;4935326;29;20485;-82
2022/03/16 15:29:43;;;;;;;16.85;11.40;;;13.30;97.30;;;;;;4942356;28;20052;-82
2022/03/16 15:32:13;;;;;;;19.02;13.88;;;13.30;97.70;;;;;;4944280;29;20807;-81
2022/03/16 15:34:42;;;;;;;21.02;14.90;;;13.10;98.00;;;;;;4943631;29;20142;-79
2022/03/16 15:37:10;;;;;;;18.13;13.70;;;12.70;98.40;;;;;;4934010;28;20492;-80
2022/03/16 15:39:39;;;;;;;15.50;11.50;;;12.70;98.60;;;;;;4939111;29;20047;-81
2022/03/16 15:44:54;;;;;;;13.85;10.25;;;12.80;98.80;;;;;;4952490;29;20058;-80
2022/03/16 15:47:23;;;;;;;15.05;10.52;;;12.90;98.60;;;;;;4952098;28;20098;-80
2022/03/16 15:49:50;;;;;;;17.60;12.38;;;12.90;98.50;;;;;;4951786;28;20061;-79
2022/03/16 15:52:17;;;;;;;18.83;12.77;;;12.80;98.00;;;;;;4942505;28;20530;-83
2022/03/16 15:54:45;;;;;;;18.63;11.80;;;12.80;97.90;;;;;;4933092;29;20086;-82
2022/03/16 15:57:12;;;;;;;15.05;11.00;;;12.70;98.40;;;;;;4944802;29;20143;-79
2022/03/16 15:59:40;;;;;;;14.07;9.65;;;12.80;98.40;;;;;;4944468;29;20047;-79
2022/03/16 16:02:07;;;;;;;13.10;9.73;;;12.80;98.00;;;;;;4949411;28;20133;-81
2022/03/16 16:04:37;;;;;;;15.98;9.85;;;12.80;98.10;;;;;;4940679;29;20513;-83
2022/03/16 16:07:05;;;;;;;13.95;9.45;;;12.90;97.20;;;;;;4947628;29;20055;-83
2022/03/16 16:09:32;;;;;;;12.32;8.73;;;12.90;97.20;;;;;;4944110;28;20158;-85
2022/03/16 16:12:00;;;;;;;12.60;9.35;;;12.90;97.40;;;;;;4938616;28;20142;-84
2022/03/16 16:14:27;;;;;;;11.88;8.88;;;12.90;97.20;;;;;;4941960;28;20066;-84
2022/03/16 16:16:54;;;;;;;12.13;7.82;;;12.80;97.10;;;;;;4945283;29;20079;-83
2022/03/16 16:19:21;;;;;;;11.95;8.30;;;12.70;97.10;;;;;;4944572;28;20083;-84
2022/03/16 16:21:51;;;;;;;13.35;9.00;;;12.60;96.90;;;;;;4939922;28;20051;-82
2022/03/16 16:24:18;;;;;;;13.65;9.50;;;12.50;97.10;;;;;;4942979;29;20048;-83
2022/03/16 16:26:48;;;;;;;11.13;8.00;;;12.30;97.40;;;;;;4937956;29;20047;-79
2022/03/16 16:29:20;;;;;;;11.35;7.90;;;12.50;96.80;;;;;;4941139;28;20564;-82
2022/03/16 16:31:47;;;;;;;12.75;8.13;;;12.60;96.10;;;;;;4943587;29;20062;-83
2022/03/16 16:34:17;;;;;;;13.32;9.40;;;12.50;96.00;;;;;;4944417;28;20079;-80
2022/03/16 16:36:45;;;;;;;12.02;8.68;;;12.30;96.10;;;;;;4951501;28;20047;-83
2022/03/16 16:39:19;;;;;;;13.50;9.10;;;12.40;96.00;;;;;;4952554;29;20047;-88
2022/03/16 16:41:50;;;;;;;13.43;9.30;;;12.20;96.00;;;;;;4952487;29;20055;-86
2022/03/16 16:44:17;;;;;;;15.45;10.48;;;12.30;95.40;;;;;;4941713;29;20135;-88
2022/03/16 16:46:47;;;;;;;12.48;8.82;;;12.20;95.40;;;;;;4955611;29;20059;-85
2022/03/16 16:49:18;;;;;;;11.80;8.75;;;12.20;95.60;;;;;;4957860;28;20508;-86
2022/03/16 16:51:46;;;;;;;10.90;8.05;;;12.10;95.80;;;;;;4956141;28;20103;-83
2022/03/16 16:54:14;;;;;;;12.50;8.57;;;12.20;95.70;;;;;;4959762;28;20055;-83
2022/03/16 16:56:42;;;;;;;13.07;9.27;;;12.10;95.50;;;;;;4963735;28;20051;-86
2022/03/16 16:59:11;;;;;;;13.52;10.05;;;12.00;95.80;;;;;;4960359;29;20056;-86
2022/03/16 17:01:39;;;;;;;13.27;8.95;;;11.90;95.90;;;;;;4941903;28;20083;-84
2022/03/16 17:04:09;;;;;;;12.13;8.63;;;11.90;96.30;;;;;;4956510;28;20074;-87
2022/03/16 17:06:36;;;;;;;11.23;8.05;;;11.90;96.70;;;;;;4957083;28;20086;-87
2022/03/16 17:09:10;;;;;;;10.18;7.35;;;12.00;96.20;;;;;;4956957;28;20573;-86
2022/03/16 17:11:41;;;;;;;10.90;7.53;;;11.90;96.10;;;;;;4941443;28;20395;-87
2022/03/16 17:14:16;;;;;;;10.85;7.65;;;12.00;96.00;;;;;;4940148;29;20090;-88
2022/03/16 17:16:46;;;;;;;11.88;8.20;;;12.00;95.90;;;;;;4950822;29;20509;-85
2022/03/16 17:19:17;;;;;;;11.02;8.20;;;11.80;96.30;;;;;;4955306;28;20055;-87
2022/03/16 17:21:48;;;;;;;13.18;8.40;;;11.80;96.30;;;;;;4954195;28;20051;-88
2022/03/16 17:24:16;;;;;;;12.05;8.80;;;11.60;96.70;;;;;;4947116;29;20051;-89
2022/03/16 17:26:45;;;;;;;14.38;9.48;;;11.50;97.20;;;;;;4949828;28;20055;-87
2022/03/16 17:29:13;;;;;;;14.70;9.48;;;11.50;97.30;;;;;;4950021;29;20059;-85
2022/03/16 17:31:40;;;;;;;13.30;9.60;;;11.40;97.40;;;;;;4955805;28;20418;-86
2022/03/16 17:34:10;;;;;;;15.32;10.65;;;11.50;97.40;;;;;;4950739;29;20051;-87
2022/03/16 17:36:38;;;;;;;14.32;9.80;;;11.40;97.70;;;;;;4948127;28;20168;-85
2022/03/16 17:39:06;;;;;;;14.63;9.68;;;11.40;97.60;;;;;;4953035;28;20082;-87
2022/03/16 17:47:11;;;;;;;12.70;9.27;;;11.40;97.60;;;;;;4938580;29;20067;-88
2022/03/16 17:49:41;;;;;;;15.50;11.10;;;11.50;97.30;;;;;;4941925;28;20122;-83
2022/03/16 17:52:08;;;;;;;15.43;10.60;;;11.30;97.90;;;;;;4945565;29;20118;-87
2022/03/16 17:54:36;;;;;;;13.63;9.25;;;11.20;98.10;;;;;;4938181;29;20137;-85
2022/03/16 17:57:03;;;;;;;12.30;9.10;;;11.20;98.60;;;;;;4948476;29;20051;-86